Tropical Cyclones
[Index]
Main Index Home Page Stock Weather Photos Extreme Storms Discussion Storm News and Storm Chasing Reports Tropical Cyclones / Hurricanes / Typhoons Weather Data and Links Wild Fires / Bushfires Weather Observation Techniques Weather Picture Catalogue Tornado Pictures and Reports Stock Video Footage and DVDs for sale
Season 2002-2003 Tropical Cyclone INIGO Track Map
Season 2002-2003 Summaries: [BoM-AU] [JTWC-AU] [JTWC-SIO] [JTWC-SPAC] [JTWC-SH]
<<- Previous TC | BoM 2002-2003 Season | Next TC ->>

click for intensity scale information  Lat/long Grid: Show Hide

 Date Labels: Show Hide

Bureau of Meteorology Tropical Cyclone Data

Name: INIGO
Number: 867 / 200203_07

31 Mar 2003 00:00 UTC to 08 Apr 2003 09:00 UTC

    date/time    lat    long    hPa   cat  kts
2003-03-31 00    7.7   124.0   1006         20          
2003-03-31 06    8.3   123.0   1004         20          
2003-03-31 12    8.6   122.3   1004         20          
2003-03-31 18    8.8   121.9   1002         20          
2003-04-01 00    9.1   121.5   1000         25          
2003-04-01 06    9.6   121.0    994    1    35          
2003-04-01 12   10.0   120.3    995    1    35          
2003-04-01 18   10.3   119.8    992    1    40          
2003-04-02 00   10.7   119.5    990    1    45          
2003-04-02 06   11.1   119.0    985    2    55          
2003-04-02 12   11.3   118.6    975    2    60          
2003-04-02 18   11.4   118.4    965    3    65          
2003-04-03 00   11.8   118.0    960    3    75          
2003-04-03 06   11.9   117.5    950    4    85          
2003-04-03 12   12.1   117.0    935    4    100          
2003-04-03 18   12.4   116.4    920    5    110          
2003-04-04 00   12.6   115.8    910    5    120          
2003-04-04 06   13.1   115.2    900    5    130          
2003-04-04 12   13.6   114.5    900    5    130          
2003-04-04 18   14.0   114.0    905    5    125          
2003-04-05 00   14.3   113.6    910    5    120          
2003-04-05 06   14.4   113.2    915    5    115          
2003-04-05 12   14.6   113.0    925    5    105          
2003-04-05 18   14.8   112.9    935    4    95          
2003-04-06 00   15.0   112.8    945    4    90          
2003-04-06 06   15.3   112.7    950    4    85          
2003-04-06 12   15.6   112.9    955    4    80          
2003-04-06 18   16.0   113.2    960    3    75          
2003-04-07 00   16.6   113.5    970    3    70          
2003-04-07 06   17.5   113.9    980    2    60          
2003-04-07 12   18.3   114.4    988    1    50          
2003-04-07 18   19.1   114.9    992    1    40          
2003-04-07 21   19.5   115.1    992    1    35          
2003-04-08 00   20.0   115.3    995    1    35          
2003-04-08 03   20.6   115.6    997         33          
2003-04-08 06   21.1   116.0    997         33          
2003-04-08 09   21.5   116.5   1000         25          
Winds are 10-min average.

Tropical cyclone tracks developed by Michael Bath using data from the Bureau of Meteorology and Google Maps.


[Australian Severe Weather index] [Copyright Notice] [Email Contacts] [Search This Site] [Privacy Policy]
Document: tropical_cyclone_inigo.htm Updated: 29 June 2017